Aeroporto :
LOGIN :

Iscrizione | Disclaimer

   EN    FR    IT 

 










Sommario :    VFR   VFR Marginale   IFR   IFR Intensivo   IFR Molto Intensivo
Visibilità : 
Base nubi : 
>= 8 km
>= 3000ft
5 / 8 km
1000 / 3000 ft
1500m / 5 km
500 / 1000 ft
800 / 1500m
200 / 500 ft
< 800m
< 200 ft
Simboli :   Temporali  Nebbia  Neve Forte  Precipitazioni Forti  Vento > 20 kt
SIGMETs :   Varie  Temporali  Ghiacco  Turbolenza  Onda orograficha  Ceneri Vulcaniche






- Altitudine del aeroporto : 362 ft
- Codice IATA : WAW


EPWA - Warsaw Okecie

ULTIMO METAR :
  • 270230Z 27014KT 9999 -RA BKN005 12/12 Q0996 TEMPO BKN003

METARs OBSOLETI :
  • 270200Z 27011KT 9999 -RA BKN005 12/12 Q0996 RERA NOSIG
  • 270130Z 26010KT 7000 RA BKN004 12/12 Q0996 NOSIG
  • 270100Z 27010KT 9999 -RA BKN004 12/12 Q0996 NOSIG
  • 270030Z 27009KT 9000 -RA BKN004 13/12 Q0996 RERA NOSIG

TAF TAF EPWA
Valido dal 27 a 03 ore il 28 a 03 ore UTC


270230Z 2703/2803 28012KT 9999 -RA BKN012
TEMPO 2703/2706 4000 RA BR BKN003 BKN007
TEMPO 2706/2712 26018G30KT
BECMG 2712/2715 SCT025
BECMG 2715/2717 18005KT



MetMap, La meteo Aeronautica in un colpo d'occhio ! - Copyright ORBIFLY Dicembre 2007 - Disclaimer

ORBIFLY MET'MAP TEAM :

Programmazione e sviluppo : Alexandra Zaïnal
Concezione : Baudouin d'Aumeries
Aiuto per la programmazione : Marc-Olivier Méhu
Supporto tecnico e logistico : Manuel Goepfert
Aiuto per la traduzione : Arnaldo La Scala

Contatto : metmap@orbifly.com




FONTI E CREDITI :

   NOAA